sensor_id;sensor_type;location;lat;lon;timestamp;pressure;altitude;pressure_sealevel;temperature;humidity
63090;BME280;49174;43.198;27.824;2022-10-31T04:55:52;101992.28;;;13.27;98.12
63090;BME280;49174;43.198;27.824;2022-10-31T04:58:18;101997.50;;;13.28;97.99
63090;BME280;49174;43.198;27.824;2022-10-31T05:00:43;101992.38;;;13.33;98.13
63090;BME280;49174;43.198;27.824;2022-10-31T05:03:09;101992.22;;;13.35;97.37
63090;BME280;49174;43.198;27.824;2022-10-31T05:05:34;101996.59;;;13.36;97.21
63090;BME280;49174;43.198;27.824;2022-10-31T05:08:00;102008.41;;;13.43;97.05
63090;BME280;49174;43.198;27.824;2022-10-31T05:10:28;102002.41;;;13.48;96.45
63090;BME280;49174;43.198;27.824;2022-10-31T05:13:04;102001.41;;;13.49;96.54
63090;BME280;49174;43.198;27.824;2022-10-31T05:15:30;102011.22;;;13.50;96.63
63090;BME280;49174;43.198;27.824;2022-10-31T05:17:56;102016.34;;;13.59;94.74
63090;BME280;49174;43.198;27.824;2022-10-31T05:20:25;102015.41;;;13.67;94.45
63090;BME280;49174;43.198;27.824;2022-10-31T05:22:52;102024.88;;;13.71;94.18
63090;BME280;49174;43.198;27.824;2022-10-31T05:25:20;102025.19;;;13.76;93.76
63090;BME280;49174;43.198;27.824;2022-10-31T05:27:47;102047.72;;;13.77;93.79
63090;BME280;49174;43.198;27.824;2022-10-31T05:30:15;102054.72;;;13.71;93.76
63090;BME280;49174;43.198;27.824;2022-10-31T05:32:43;102044.72;;;13.72;93.99
63090;BME280;49174;43.198;27.824;2022-10-31T05:35:15;102046.59;;;13.71;94.16
63090;BME280;49174;43.198;27.824;2022-10-31T05:37:41;102046.38;;;13.73;93.99
63090;BME280;49174;43.198;27.824;2022-10-31T05:40:09;102056.56;;;13.56;94.88
63090;BME280;49174;43.198;27.824;2022-10-31T05:42:35;102043.00;;;13.56;94.62
63090;BME280;49174;43.198;27.824;2022-10-31T05:45:03;102056.94;;;13.68;94.40
63090;BME280;49174;43.198;27.824;2022-10-31T05:47:28;102059.03;;;13.80;93.99
63090;BME280;49174;43.198;27.824;2022-10-31T05:49:56;102064.00;;;13.92;93.68
63090;BME280;49174;43.198;27.824;2022-10-31T05:52:21;102064.94;;;13.99;94.11
63090;BME280;49174;43.198;27.824;2022-10-31T05:54:47;102068.19;;;14.09;93.28
63090;BME280;49174;43.198;27.824;2022-10-31T05:57:12;102075.03;;;14.20;93.02
63090;BME280;49174;43.198;27.824;2022-10-31T05:59:38;102083.44;;;14.25;93.08
63090;BME280;49174;43.198;27.824;2022-10-31T06:02:04;102080.06;;;14.38;91.35
63090;BME280;49174;43.198;27.824;2022-10-31T06:04:30;102076.88;;;14.49;90.92
63090;BME280;49174;43.198;27.824;2022-10-31T06:06:56;102073.03;;;14.58;90.55
63090;BME280;49174;43.198;27.824;2022-10-31T06:09:22;102078.53;;;14.65;90.14
63090;BME280;49174;43.198;27.824;2022-10-31T06:11:48;102076.53;;;14.73;89.79
63090;BME280;49174;43.198;27.824;2022-10-31T06:14:13;102075.78;;;14.80;89.66
63090;BME280;49174;43.198;27.824;2022-10-31T06:16:39;102068.09;;;14.83;89.86
63090;BME280;49174;43.198;27.824;2022-10-31T06:19:05;102077.53;;;14.87;90.26
63090;BME280;49174;43.198;27.824;2022-10-31T06:21:30;102084.28;;;14.91;89.92
63090;BME280;49174;43.198;27.824;2022-10-31T06:23:56;102077.63;;;14.94;89.57
63090;BME280;49174;43.198;27.824;2022-10-31T06:26:21;102078.44;;;14.94;89.58
63090;BME280;49174;43.198;27.824;2022-10-31T06:28:47;102075.56;;;14.96;88.96
63090;BME280;49174;43.198;27.824;2022-10-31T06:31:12;102078.91;;;14.98;89.25
63090;BME280;49174;43.198;27.824;2022-10-31T06:33:40;102083.09;;;15.01;88.68
63090;BME280;49174;43.198;27.824;2022-10-31T06:36:05;102086.47;;;15.03;88.60
63090;BME280;49174;43.198;27.824;2022-10-31T06:38:31;102090.69;;;15.05;88.89
63090;BME280;49174;43.198;27.824;2022-10-31T06:40:57;102086.53;;;15.09;88.47
63090;BME280;49174;43.198;27.824;2022-10-31T06:43:22;102091.19;;;15.15;89.04
63090;BME280;49174;43.198;27.824;2022-10-31T06:45:48;102102.16;;;15.22;88.87
63090;BME280;49174;43.198;27.824;2022-10-31T06:48:13;102100.78;;;15.33;87.04
63090;BME280;49174;43.198;27.824;2022-10-31T06:50:39;102108.16;;;15.39;86.48
63090;BME280;49174;43.198;27.824;2022-10-31T06:53:05;102100.91;;;15.46;86.65
63090;BME280;49174;43.198;27.824;2022-10-31T06:55:30;102109.31;;;15.51;86.28
63090;BME280;49174;43.198;27.824;2022-10-31T06:57:58;102109.81;;;15.61;86.05
63090;BME280;49174;43.198;27.824;2022-10-31T07:00:26;102113.06;;;15.72;85.20
63090;BME280;49174;43.198;27.824;2022-10-31T07:03:05;102111.69;;;15.82;86.06
63090;BME280;49174;43.198;27.824;2022-10-31T07:05:31;102121.41;;;15.98;85.07
63090;BME280;49174;43.198;27.824;2022-10-31T07:08:02;102114.78;;;16.07;84.40
63090;BME280;49174;43.198;27.824;2022-10-31T07:10:31;102110.22;;;16.15;85.12
63090;BME280;49174;43.198;27.824;2022-10-31T07:12:58;102108.38;;;16.22;83.48
63090;BME280;49174;43.198;27.824;2022-10-31T07:15:25;102114.94;;;16.34;81.35
63090;BME280;49174;43.198;27.824;2022-10-31T07:17:51;102107.47;;;16.49;81.79
63090;BME280;49174;43.198;27.824;2022-10-31T07:20:17;102103.75;;;16.64;81.78
63090;BME280;49174;43.198;27.824;2022-10-31T07:22:43;102105.06;;;16.74;78.76
63090;BME280;49174;43.198;27.824;2022-10-31T07:25:09;102100.91;;;16.79;76.95
63090;BME280;49174;43.198;27.824;2022-10-31T07:27:39;102109.72;;;16.87;74.17
63090;BME280;49174;43.198;27.824;2022-10-31T07:30:06;102110.78;;;16.93;74.07
63090;BME280;49174;43.198;27.824;2022-10-31T07:32:49;102121.50;;;17.01;74.40
63090;BME280;49174;43.198;27.824;2022-10-31T07:35:18;102109.56;;;17.09;74.90
63090;BME280;49174;43.198;27.824;2022-10-31T07:37:44;102107.47;;;17.11;73.17
63090;BME280;49174;43.198;27.824;2022-10-31T07:40:10;102100.78;;;17.13;72.46
63090;BME280;49174;43.198;27.824;2022-10-31T07:42:41;102096.16;;;17.14;71.61
63090;BME280;49174;43.198;27.824;2022-10-31T07:45:09;102098.66;;;17.15;71.27
63090;BME280;49174;43.198;27.824;2022-10-31T07:48:02;102097.22;;;17.19;72.33
63090;BME280;49174;43.198;27.824;2022-10-31T07:50:30;102111.06;;;17.25;72.11
63090;BME280;49174;43.198;27.824;2022-10-31T07:55:26;102113.78;;;17.31;72.46
63090;BME280;49174;43.198;27.824;2022-10-31T07:58:17;102120.91;;;17.32;73.22
63090;BME280;49174;43.198;27.824;2022-10-31T08:00:43;102115.69;;;17.31;72.43
63090;BME280;49174;43.198;27.824;2022-10-31T08:03:11;102119.47;;;17.36;73.34
63090;BME280;49174;43.198;27.824;2022-10-31T08:05:38;102113.41;;;17.48;74.41
63090;BME280;49174;43.198;27.824;2022-10-31T08:08:05;102118.66;;;17.69;74.69
63090;BME280;49174;43.198;27.824;2022-10-31T08:10:31;102121.81;;;17.79;75.08
63090;BME280;49174;43.198;27.824;2022-10-31T08:15:23;102121.16;;;17.97;77.09
63090;BME280;49174;43.198;27.824;2022-10-31T08:17:48;102120.94;;;18.05;79.34
63090;BME280;49174;43.198;27.824;2022-10-31T08:20:14;102127.44;;;18.11;78.85
63090;BME280;49174;43.198;27.824;2022-10-31T08:22:40;102129.75;;;18.14;79.10
63090;BME280;49174;43.198;27.824;2022-10-31T08:25:05;102120.06;;;18.18;78.91
63090;BME280;49174;43.198;27.824;2022-10-31T08:27:31;102117.09;;;18.26;78.69
63090;BME280;49174;43.198;27.824;2022-10-31T08:29:56;102119.63;;;18.28;78.49
63090;BME280;49174;43.198;27.824;2022-10-31T08:32:22;102114.56;;;18.31;78.53
63090;BME280;49174;43.198;27.824;2022-10-31T08:34:47;102103.00;;;18.36;78.68
63090;BME280;49174;43.198;27.824;2022-10-31T08:37:13;102104.03;;;18.42;77.51
63090;BME280;49174;43.198;27.824;2022-10-31T08:39:43;102109.25;;;18.43;77.63
63090;BME280;49174;43.198;27.824;2022-10-31T08:42:09;102112.00;;;18.50;76.15
63090;BME280;49174;43.198;27.824;2022-10-31T08:44:34;102120.34;;;18.55;76.12
63090;BME280;49174;43.198;27.824;2022-10-31T08:47:00;102120.78;;;18.59;76.08
63090;BME280;49174;43.198;27.824;2022-10-31T08:49:26;102119.50;;;18.61;75.73
63090;BME280;49174;43.198;27.824;2022-10-31T08:51:52;102127.28;;;18.64;75.50
63090;BME280;49174;43.198;27.824;2022-10-31T08:54:18;102121.56;;;18.79;75.62
63090;BME280;49174;43.198;27.824;2022-10-31T08:56:44;102123.53;;;18.97;74.24
63090;BME280;49174;43.198;27.824;2022-10-31T08:59:10;102119.06;;;19.09;73.83
63090;BME280;49174;43.198;27.824;2022-10-31T09:01:35;102118.38;;;19.20;72.48
63090;BME280;49174;43.198;27.824;2022-10-31T09:04:01;102119.59;;;19.25;71.60
63090;BME280;49174;43.198;27.824;2022-10-31T09:06:29;102116.25;;;19.23;72.35
63090;BME280;49174;43.198;27.824;2022-10-31T09:08:54;102117.28;;;19.22;72.64
63090;BME280;49174;43.198;27.824;2022-10-31T09:11:20;102119.19;;;19.21;73.01
63090;BME280;49174;43.198;27.824;2022-10-31T09:13:45;102113.34;;;19.17;73.38
63090;BME280;49174;43.198;27.824;2022-10-31T09:16:11;102118.63;;;19.12;72.51
63090;BME280;49174;43.198;27.824;2022-10-31T09:18:36;102106.22;;;19.10;73.27
63090;BME280;49174;43.198;27.824;2022-10-31T09:21:02;102109.16;;;19.08;71.77
63090;BME280;49174;43.198;27.824;2022-10-31T09:23:28;102102.41;;;19.17;69.48
63090;BME280;49174;43.198;27.824;2022-10-31T09:25:54;102099.84;;;19.23;69.37
63090;BME280;49174;43.198;27.824;2022-10-31T09:28:22;102097.03;;;19.29;72.28
63090;BME280;49174;43.198;27.824;2022-10-31T09:30:50;102103.69;;;19.40;69.22
63090;BME280;49174;43.198;27.824;2022-10-31T09:33:17;102098.94;;;19.54;70.25
63090;BME280;49174;43.198;27.824;2022-10-31T09:35:43;102096.97;;;19.68;72.83
63090;BME280;49174;43.198;27.824;2022-10-31T09:38:14;102090.91;;;19.84;70.75
63090;BME280;49174;43.198;27.824;2022-10-31T09:43:29;102084.41;;;20.03;70.92
63090;BME280;49174;43.198;27.824;2022-10-31T09:51:21;102082.63;;;20.46;71.87
63090;BME280;49174;43.198;27.824;2022-10-31T09:53:53;102072.72;;;20.63;71.15
63090;BME280;49174;43.198;27.824;2022-10-31T09:56:24;102078.03;;;20.77;66.03
63090;BME280;49174;43.198;27.824;2022-10-31T09:58:58;102077.59;;;20.91;66.51
63090;BME280;49174;43.198;27.824;2022-10-31T10:06:53;102071.84;;;21.23;66.19
63090;BME280;49174;43.198;27.824;2022-10-31T10:09:24;102068.69;;;21.38;69.13
63090;BME280;49174;43.198;27.824;2022-10-31T10:17:57;102059.84;;;21.71;64.75
63090;BME280;49174;43.198;27.824;2022-10-31T10:20:54;102060.56;;;21.90;65.08
63090;BME280;49174;43.198;27.824;2022-10-31T10:26:21;102057.00;;;22.42;59.08
63090;BME280;49174;43.198;27.824;2022-10-31T10:29:07;102052.75;;;22.63;60.98
63090;BME280;49174;43.198;27.824;2022-10-31T10:31:40;102053.94;;;22.84;59.62
63090;BME280;49174;43.198;27.824;2022-10-31T10:37:02;102055.13;;;23.16;59.10
63090;BME280;49174;43.198;27.824;2022-10-31T10:41:58;102046.44;;;23.25;60.18
63090;BME280;49174;43.198;27.824;2022-10-31T10:44:47;102034.59;;;23.41;55.34
63090;BME280;49174;43.198;27.824;2022-10-31T10:47:38;102042.75;;;23.53;54.16
63090;BME280;49174;43.198;27.824;2022-10-31T10:52:56;102042.00;;;23.74;55.11
63090;BME280;49174;43.198;27.824;2022-10-31T10:55:48;102029.25;;;23.90;55.18
63090;BME280;49174;43.198;27.824;2022-10-31T10:58:16;102028.19;;;23.91;48.97
63090;BME280;49174;43.198;27.824;2022-10-31T11:00:46;102030.03;;;23.69;48.58
63090;BME280;49174;43.198;27.824;2022-10-31T11:03:14;102033.56;;;23.47;53.08
63090;BME280;49174;43.198;27.824;2022-10-31T11:05:54;102035.97;;;22.93;52.67
63090;BME280;49174;43.198;27.824;2022-10-31T11:08:32;102036.13;;;22.29;54.87
63090;BME280;49174;43.198;27.824;2022-10-31T11:11:25;102039.06;;;21.75;56.42
63090;BME280;49174;43.198;27.824;2022-10-31T11:13:59;102037.41;;;21.51;56.94
63090;BME280;49174;43.198;27.824;2022-10-31T11:18:51;102032.88;;;21.56;57.67
63090;BME280;49174;43.198;27.824;2022-10-31T11:21:24;102029.59;;;21.36;57.47
63090;BME280;49174;43.198;27.824;2022-10-31T11:24:02;102036.41;;;21.22;58.82
63090;BME280;49174;43.198;27.824;2022-10-31T11:26:27;102039.72;;;21.12;58.84
63090;BME280;49174;43.198;27.824;2022-10-31T11:28:57;102039.97;;;21.10;59.14
63090;BME280;49174;43.198;27.824;2022-10-31T11:31:24;102033.16;;;21.13;58.87
63090;BME280;49174;43.198;27.824;2022-10-31T11:34:00;102023.63;;;21.15;59.13
63090;BME280;49174;43.198;27.824;2022-10-31T11:36:29;102028.03;;;21.16;61.04
63090;BME280;49174;43.198;27.824;2022-10-31T11:38:58;102017.41;;;21.08;59.29
63090;BME280;49174;43.198;27.824;2022-10-31T11:41:33;102023.22;;;21.00;58.88
63090;BME280;49174;43.198;27.824;2022-10-31T11:47:03;102010.50;;;21.29;58.73
63090;BME280;49174;43.198;27.824;2022-10-31T11:52:00;102008.16;;;21.68;58.55
63090;BME280;49174;43.198;27.824;2022-10-31T11:54:48;102011.59;;;21.87;55.72
63090;BME280;49174;43.198;27.824;2022-10-31T11:57:41;102003.91;;;21.89;57.75
63090;BME280;49174;43.198;27.824;2022-10-31T12:00:27;102007.50;;;22.01;55.98
63090;BME280;49174;43.198;27.824;2022-10-31T12:06:02;102004.59;;;22.08;54.71
63090;BME280;49174;43.198;27.824;2022-10-31T12:08:30;102009.38;;;22.13;52.33
63090;BME280;49174;43.198;27.824;2022-10-31T12:11:18;102006.41;;;22.02;54.23
63090;BME280;49174;43.198;27.824;2022-10-31T12:16:50;102011.78;;;21.97;54.35
63090;BME280;49174;43.198;27.824;2022-10-31T12:25:24;102006.19;;;22.04;56.10
63090;BME280;49174;43.198;27.824;2022-10-31T12:36:32;101999.78;;;21.63;56.15
63090;BME280;49174;43.198;27.824;2022-10-31T12:42:11;102007.19;;;21.74;56.19
63090;BME280;49174;43.198;27.824;2022-10-31T12:50:16;102000.69;;;22.04;55.54
63090;BME280;49174;43.198;27.824;2022-10-31T12:53:19;102004.38;;;22.09;54.28
63090;BME280;49174;43.198;27.824;2022-10-31T12:55:51;102005.19;;;22.10;54.87
63090;BME280;49174;43.198;27.824;2022-10-31T12:58:26;102004.22;;;22.16;54.92
63090;BME280;49174;43.198;27.824;2022-10-31T13:01:18;102008.78;;;22.22;53.38
63090;BME280;49174;43.198;27.824;2022-10-31T13:06:34;102009.31;;;21.96;53.78
63090;BME280;49174;43.198;27.824;2022-10-31T13:09:06;102013.59;;;21.92;54.37
63090;BME280;49174;43.198;27.824;2022-10-31T13:11:41;102009.19;;;21.91;54.85
63090;BME280;49174;43.198;27.824;2022-10-31T13:16:47;102007.72;;;22.00;54.98
63090;BME280;49174;43.198;27.824;2022-10-31T13:19:26;102004.50;;;22.03;54.49
63090;BME280;49174;43.198;27.824;2022-10-31T13:21:55;102007.03;;;21.81;56.29
63090;BME280;49174;43.198;27.824;2022-10-31T13:24:41;102007.44;;;21.61;57.05
63090;BME280;49174;43.198;27.824;2022-10-31T13:27:15;102002.53;;;21.63;57.55
63090;BME280;49174;43.198;27.824;2022-10-31T13:32:15;102014.13;;;21.65;57.41
63090;BME280;49174;43.198;27.824;2022-10-31T13:34:47;102013.66;;;21.68;57.73
63090;BME280;49174;43.198;27.824;2022-10-31T13:37:39;102024.38;;;21.58;56.62
63090;BME280;49174;43.198;27.824;2022-10-31T13:45:25;102018.53;;;21.54;58.38
63090;BME280;49174;43.198;27.824;2022-10-31T13:48:01;102024.53;;;21.51;60.00
63090;BME280;49174;43.198;27.824;2022-10-31T13:50:54;102016.50;;;21.50;60.30
63090;BME280;49174;43.198;27.824;2022-10-31T13:53:22;102017.34;;;21.50;60.45
63090;BME280;49174;43.198;27.824;2022-10-31T13:56:09;102019.50;;;21.48;59.59
63090;BME280;49174;43.198;27.824;2022-10-31T13:58:40;102016.63;;;21.43;59.54
63090;BME280;49174;43.198;27.824;2022-10-31T14:01:21;102010.19;;;21.37;60.30
63090;BME280;49174;43.198;27.824;2022-10-31T14:04:07;102016.97;;;21.35;60.00
63090;BME280;49174;43.198;27.824;2022-10-31T14:06:49;102014.31;;;21.28;60.62
63090;BME280;49174;43.198;27.824;2022-10-31T14:09:25;102018.50;;;21.19;61.10
63090;BME280;49174;43.198;27.824;2022-10-31T14:11:52;102023.00;;;21.13;60.04
63090;BME280;49174;43.198;27.824;2022-10-31T14:14:19;102029.78;;;20.99;59.79
63090;BME280;49174;43.198;27.824;2022-10-31T14:16:54;102020.72;;;20.87;60.32
63090;BME280;49174;43.198;27.824;2022-10-31T14:19:21;102028.94;;;20.87;60.95
63090;BME280;49174;43.198;27.824;2022-10-31T14:21:48;102028.19;;;20.80;61.07
63090;BME280;49174;43.198;27.824;2022-10-31T14:24:31;102034.25;;;20.70;61.34
63090;BME280;49174;43.198;27.824;2022-10-31T14:29:52;102032.75;;;20.56;60.93
63090;BME280;49174;43.198;27.824;2022-10-31T14:51:02;102052.72;;;19.71;64.61
63090;BME280;49174;43.198;27.824;2022-10-31T14:53:37;102056.78;;;19.61;65.28
63090;BME280;49174;43.198;27.824;2022-10-31T14:56:10;102063.56;;;19.52;65.21
63090;BME280;49174;43.198;27.824;2022-10-31T14:58:45;102061.81;;;19.39;66.53
63090;BME280;49174;43.198;27.824;2022-10-31T15:04:13;102073.75;;;19.20;66.17
63090;BME280;49174;43.198;27.824;2022-10-31T15:06:46;102071.94;;;19.07;66.37
63090;BME280;49174;43.198;27.824;2022-10-31T15:11:49;102072.78;;;18.76;67.90
63090;BME280;49174;43.198;27.824;2022-10-31T15:14:29;102086.28;;;18.64;68.63
63090;BME280;49174;43.198;27.824;2022-10-31T15:16:57;102082.50;;;18.59;68.12
63090;BME280;49174;43.198;27.824;2022-10-31T15:19:26;102084.91;;;18.42;68.85
63090;BME280;49174;43.198;27.824;2022-10-31T15:21:54;102087.44;;;18.30;69.00
63090;BME280;49174;43.198;27.824;2022-10-31T15:24:23;102091.50;;;18.14;69.62
63090;BME280;49174;43.198;27.824;2022-10-31T15:26:51;102092.97;;;18.10;69.96
63090;BME280;49174;43.198;27.824;2022-10-31T15:29:23;102090.47;;;18.02;70.59
63090;BME280;49174;43.198;27.824;2022-10-31T15:31:50;102097.41;;;17.91;72.05
63090;BME280;49174;43.198;27.824;2022-10-31T15:34:22;102097.22;;;17.79;72.68
63090;BME280;49174;43.198;27.824;2022-10-31T15:36:50;102102.88;;;17.71;71.76
63090;BME280;49174;43.198;27.824;2022-10-31T15:39:16;102102.47;;;17.61;72.06
63090;BME280;49174;43.198;27.824;2022-10-31T15:41:51;102108.56;;;17.50;71.53
63090;BME280;49174;43.198;27.824;2022-10-31T15:46:55;102115.84;;;17.16;72.79
63090;BME280;49174;43.198;27.824;2022-10-31T15:49:37;102109.34;;;17.04;72.90
63090;BME280;49174;43.198;27.824;2022-10-31T15:52:17;102117.47;;;16.84;73.75
63090;BME280;49174;43.198;27.824;2022-10-31T15:54:47;102118.22;;;16.71;74.45
63090;BME280;49174;43.198;27.824;2022-10-31T15:57:14;102126.91;;;16.46;74.54
63090;BME280;49174;43.198;27.824;2022-10-31T15:59:42;102130.84;;;16.30;74.40
63090;BME280;49174;43.198;27.824;2022-10-31T16:02:12;102125.13;;;16.19;75.37
63090;BME280;49174;43.198;27.824;2022-10-31T16:04:48;102127.34;;;16.08;76.86
63090;BME280;49174;43.198;27.824;2022-10-31T16:07:17;102137.34;;;16.01;77.16
63090;BME280;49174;43.198;27.824;2022-10-31T16:09:52;102133.75;;;15.94;78.01
63090;BME280;49174;43.198;27.824;2022-10-31T16:12:18;102142.09;;;15.93;78.43
63090;BME280;49174;43.198;27.824;2022-10-31T16:14:44;102147.97;;;15.96;78.59
63090;BME280;49174;43.198;27.824;2022-10-31T16:17:13;102146.06;;;15.90;78.33
63090;BME280;49174;43.198;27.824;2022-10-31T16:19:57;102148.53;;;15.85;78.92
63090;BME280;49174;43.198;27.824;2022-10-31T16:22:29;102148.31;;;15.80;78.17
63090;BME280;49174;43.198;27.824;2022-10-31T16:25:11;102156.41;;;15.73;79.32
63090;BME280;49174;43.198;27.824;2022-10-31T16:27:38;102161.41;;;15.70;78.66
63090;BME280;49174;43.198;27.824;2022-10-31T16:30:46;102166.50;;;15.58;78.66
63090;BME280;49174;43.198;27.824;2022-10-31T16:33:23;102165.16;;;15.47;79.67
63090;BME280;49174;43.198;27.824;2022-10-31T16:35:49;102165.28;;;15.39;79.72
63090;BME280;49174;43.198;27.824;2022-10-31T16:38:15;102172.13;;;15.35;79.13
63090;BME280;49174;43.198;27.824;2022-10-31T16:40:41;102169.91;;;15.24;79.11
63090;BME280;49174;43.198;27.824;2022-10-31T16:43:15;102169.00;;;15.16;80.04
63090;BME280;49174;43.198;27.824;2022-10-31T16:45:44;102170.34;;;15.06;79.49
63090;BME280;49174;43.198;27.824;2022-10-31T16:48:16;102167.47;;;14.92;80.69
63090;BME280;49174;43.198;27.824;2022-10-31T16:50:43;102168.19;;;14.80;80.79
63090;BME280;49174;43.198;27.824;2022-10-31T16:53:09;102178.38;;;14.78;80.97
